createdAt,value
2022-07-29T00:01:44.710Z,43.49
2022-07-29T00:04:13.819Z,43.31
2022-07-29T00:06:42.370Z,43.47
2022-07-29T00:09:10.278Z,43.55
2022-07-29T00:11:38.321Z,43.70
2022-07-29T00:14:06.390Z,43.76
2022-07-29T00:16:34.380Z,43.74
2022-07-29T00:19:04.181Z,43.66
2022-07-29T00:21:32.139Z,43.63
2022-07-29T00:23:59.936Z,43.71
2022-07-29T00:26:32.419Z,43.63
2022-07-29T00:29:31.971Z,43.74
2022-07-29T00:31:49.134Z,43.82
2022-07-29T00:34:37.124Z,43.96
2022-07-29T00:37:04.962Z,44.32
2022-07-29T00:39:35.648Z,44.10
2022-07-29T00:42:05.346Z,43.99
2022-07-29T00:44:38.321Z,44.39
2022-07-29T00:47:07.075Z,44.30
2022-07-29T00:49:37.611Z,44.13
2022-07-29T00:52:08.322Z,44.72
2022-07-29T00:54:39.838Z,44.55
2022-07-29T00:57:14.178Z,44.67
2022-07-29T00:59:42.202Z,44.96
2022-07-29T01:02:10.136Z,45.09
2022-07-29T01:04:40.864Z,44.87
2022-07-29T01:07:09.093Z,44.85
2022-07-29T01:09:45.959Z,44.61
2022-07-29T01:12:19.206Z,44.88
2022-07-29T01:14:49.419Z,44.90
2022-07-29T01:17:26.869Z,44.98
2022-07-29T01:20:08.219Z,44.99
2022-07-29T01:22:56.039Z,45.51
2022-07-29T01:25:59.398Z,45.69
2022-07-29T01:29:06.075Z,45.86
2022-07-29T01:31:59.578Z,45.79
2022-07-29T01:34:42.728Z,45.46
2022-07-29T01:37:20.886Z,45.70
2022-07-29T01:39:53.310Z,45.75
2022-07-29T01:42:30.543Z,46.10
2022-07-29T01:45:15.224Z,46.11
2022-07-29T01:47:54.589Z,46.49
2022-07-29T01:50:32.768Z,46.43
2022-07-29T01:53:05.531Z,46.57
2022-07-29T01:55:39.396Z,46.58
2022-07-29T01:58:11.469Z,46.45
2022-07-29T02:00:43.662Z,46.61
2022-07-29T02:03:15.567Z,46.37
2022-07-29T02:05:47.739Z,46.42
2022-07-29T02:08:20.636Z,46.45
2022-07-29T02:10:52.350Z,46.58
2022-07-29T02:13:25.662Z,46.33
2022-07-29T02:15:58.219Z,46.50
2022-07-29T02:18:31.293Z,46.32
2022-07-29T02:21:02.037Z,46.63
2022-07-29T02:23:51.164Z,46.50
2022-07-29T02:26:23.033Z,46.37
2022-07-29T02:28:55.433Z,46.94
2022-07-29T02:31:35.315Z,46.73
2022-07-29T02:34:07.412Z,46.58
2022-07-29T02:36:35.964Z,46.69
2022-07-29T02:39:06.061Z,46.88
2022-07-29T02:41:45.350Z,46.85
2022-07-29T02:44:16.896Z,46.88
2022-07-29T02:46:54.492Z,46.49
2022-07-29T02:49:39.430Z,46.91
2022-07-29T02:52:16.855Z,46.51
2022-07-29T02:54:54.787Z,46.87
2022-07-29T02:57:32.564Z,46.90
2022-07-29T03:00:06.803Z,47.11
2022-07-29T03:02:40.734Z,47.00
2022-07-29T03:05:14.071Z,47.28
2022-07-29T03:07:46.620Z,47.30
2022-07-29T03:10:17.461Z,47.29
2022-07-29T03:12:46.047Z,47.44
2022-07-29T03:15:14.935Z,47.48
2022-07-29T03:17:44.854Z,47.32
2022-07-29T03:20:14.148Z,47.54
2022-07-29T03:22:44.567Z,47.54
2022-07-29T03:25:14.650Z,47.59
2022-07-29T03:27:44.097Z,47.45
2022-07-29T03:30:18.398Z,47.53
2022-07-29T03:32:52.826Z,47.53
2022-07-29T03:35:21.273Z,47.62
2022-07-29T03:37:49.868Z,47.61
2022-07-29T03:40:26.754Z,47.82
2022-07-29T03:42:57.040Z,48.32
2022-07-29T03:45:27.628Z,47.57
2022-07-29T03:48:06.437Z,47.73
2022-07-29T03:50:35.632Z,47.92
2022-07-29T03:53:04.732Z,47.89
2022-07-29T03:55:41.167Z,47.47
2022-07-29T03:58:11.828Z,47.50
2022-07-29T04:00:42.792Z,47.44
2022-07-29T04:03:12.320Z,47.71
2022-07-29T04:05:43.523Z,47.56
2022-07-29T04:08:11.417Z,48.25
2022-07-29T04:10:39.645Z,47.54
2022-07-29T04:13:07.457Z,48.12
2022-07-29T04:15:35.387Z,48.05
2022-07-29T04:18:03.478Z,47.88
2022-07-29T04:20:32.620Z,47.98
2022-07-29T04:23:00.360Z,47.91
2022-07-29T04:25:28.153Z,48.19
2022-07-29T04:28:01.556Z,48.11
2022-07-29T04:30:30.748Z,47.55
2022-07-29T04:32:58.719Z,48.34
2022-07-29T04:35:26.540Z,48.27
2022-07-29T04:37:55.700Z,47.75
2022-07-29T04:40:23.904Z,48.03
2022-07-29T04:42:51.687Z,48.00
2022-07-29T04:45:22.322Z,48.55
2022-07-29T04:47:50.622Z,48.09
2022-07-29T04:50:18.874Z,47.95
2022-07-29T04:52:47.663Z,48.27
2022-07-29T04:55:17.085Z,47.53
2022-07-29T04:57:44.921Z,48.83
2022-07-29T05:00:13.948Z,48.65
2022-07-29T05:02:41.926Z,47.23
2022-07-29T05:05:10.231Z,47.62
2022-07-29T05:07:38.076Z,48.13
2022-07-29T05:10:07.020Z,47.41
2022-07-29T05:12:36.442Z,48.61
2022-07-29T05:15:05.952Z,48.25
2022-07-29T05:17:33.733Z,46.43
2022-07-29T05:20:02.708Z,46.35
2022-07-29T05:22:30.492Z,45.80
2022-07-29T05:24:58.279Z,46.64
2022-07-29T05:27:26.174Z,46.16
2022-07-29T05:29:55.291Z,45.95
2022-07-29T05:32:23.083Z,45.81
2022-07-29T05:34:51.912Z,46.08
2022-07-29T05:37:20.200Z,46.86
2022-07-29T05:39:50.465Z,46.89
2022-07-29T05:42:24.855Z,47.23
2022-07-29T05:44:52.865Z,46.84
2022-07-29T05:47:23.008Z,47.02
2022-07-29T05:49:51.545Z,46.89
2022-07-29T05:52:19.731Z,46.99
2022-07-29T05:54:47.895Z,47.35
2022-07-29T05:57:20.055Z,47.08
2022-07-29T05:59:49.048Z,47.02
2022-07-29T06:02:17.901Z,47.44
2022-07-29T06:04:47.141Z,47.48
2022-07-29T06:07:15.027Z,47.62
2022-07-29T06:09:43.126Z,48.43
2022-07-29T06:12:10.899Z,47.87
2022-07-29T06:14:39.135Z,48.07
2022-07-29T06:17:07.017Z,47.29
2022-07-29T06:19:36.257Z,48.42
2022-07-29T06:22:05.753Z,48.07
2022-07-29T06:24:33.616Z,47.92
2022-07-29T06:27:01.386Z,47.92
2022-07-29T06:29:29.250Z,48.39
2022-07-29T06:31:57.044Z,48.01
2022-07-29T06:34:24.819Z,48.47
2022-07-29T06:36:53.708Z,47.73
2022-07-29T06:39:23.443Z,47.56
2022-07-29T06:41:51.666Z,47.27
2022-07-29T06:44:20.481Z,46.99
2022-07-29T06:46:50.889Z,47.12
2022-07-29T06:49:18.760Z,47.37
2022-07-29T06:51:46.659Z,47.09
2022-07-29T06:54:14.808Z,47.27
2022-07-29T06:56:44.422Z,47.50
2022-07-29T06:59:13.273Z,47.59
2022-07-29T07:01:43.760Z,46.91
2022-07-29T07:04:12.537Z,47.40
2022-07-29T07:06:40.804Z,47.66
2022-07-29T07:09:08.575Z,48.03
2022-07-29T07:11:36.569Z,47.92
2022-07-29T07:14:05.731Z,48.15
2022-07-29T07:16:33.805Z,48.33
2022-07-29T07:19:02.045Z,48.19
2022-07-29T07:21:30.665Z,48.14
2022-07-29T07:24:00.206Z,47.77
2022-07-29T07:26:29.210Z,48.11
2022-07-29T07:28:57.213Z,47.63
2022-07-29T07:31:26.681Z,47.55
2022-07-29T07:33:54.709Z,47.32
2022-07-29T07:36:23.387Z,46.64
2022-07-29T07:38:51.231Z,46.34
2022-07-29T07:41:19.276Z,46.70
2022-07-29T07:43:47.364Z,46.25
2022-07-29T07:46:15.737Z,48.06
2022-07-29T07:48:45.477Z,46.35
2022-07-29T07:51:13.473Z,47.02
2022-07-29T07:53:41.553Z,46.10
2022-07-29T07:56:11.368Z,46.50
2022-07-29T07:58:40.597Z,46.46
2022-07-29T08:01:09.111Z,46.68
2022-07-29T08:03:37.742Z,46.98
2022-07-29T08:06:07.444Z,47.82
2022-07-29T08:08:35.278Z,47.18
2022-07-29T08:11:08.951Z,47.85
2022-07-29T08:13:38.957Z,47.55
2022-07-29T08:16:15.876Z,50.48
2022-07-29T08:18:46.184Z,51.36
2022-07-29T08:21:16.620Z,53.31
2022-07-29T08:24:15.290Z,54.33
2022-07-29T08:26:44.186Z,55.21
2022-07-29T08:29:15.041Z,56.14
2022-07-29T08:31:46.831Z,57.06
2022-07-29T08:34:14.665Z,56.77
2022-07-29T08:36:43.775Z,58.71
2022-07-29T08:39:11.528Z,58.88
2022-07-29T08:41:40.618Z,59.22
2022-07-29T08:44:30.449Z,58.79
2022-07-29T08:46:58.952Z,58.62
2022-07-29T08:49:26.763Z,60.18
2022-07-29T08:51:59.672Z,59.55
2022-07-29T08:54:29.211Z,60.07
2022-07-29T08:56:58.140Z,60.17
2022-07-29T08:59:29.107Z,63.53
2022-07-29T09:02:01.222Z,62.23
2022-07-29T09:04:35.278Z,60.67
2022-07-29T09:07:06.845Z,62.50
2022-07-29T09:09:35.152Z,63.90
2022-07-29T09:12:04.897Z,63.53
2022-07-29T09:14:32.721Z,62.17
2022-07-29T09:17:01.970Z,61.99
2022-07-29T09:19:32.687Z,63.39
2022-07-29T09:22:03.270Z,66.95
2022-07-29T09:24:42.564Z,67.86
2022-07-29T09:27:21.351Z,67.76
2022-07-29T09:29:58.278Z,67.47
2022-07-29T09:32:27.491Z,67.55
2022-07-29T09:35:19.876Z,67.66
2022-07-29T09:37:49.566Z,68.48
2022-07-29T09:40:21.970Z,68.02
2022-07-29T09:42:50.878Z,66.73
2022-07-29T09:45:30.182Z,65.61
2022-07-29T09:48:04.233Z,64.49
2022-07-29T09:50:40.880Z,66.42
2022-07-29T09:53:11.995Z,68.88
2022-07-29T09:55:52.486Z,68.85
2022-07-29T09:58:23.418Z,68.10
2022-07-29T10:00:54.383Z,66.16
2022-07-29T10:03:23.272Z,66.62
2022-07-29T10:06:07.425Z,67.01
2022-07-29T10:08:36.069Z,66.68
2022-07-29T10:11:13.928Z,68.02
2022-07-29T10:13:44.651Z,68.02
2022-07-29T10:16:14.319Z,67.24
2022-07-29T10:18:44.475Z,65.80
2022-07-29T10:21:35.197Z,64.28
2022-07-29T10:24:02.046Z,64.64
2022-07-29T10:26:32.069Z,62.63
2022-07-29T10:29:00.498Z,62.74
2022-07-29T10:31:45.028Z,62.13
2022-07-29T10:34:32.624Z,60.80
2022-07-29T10:37:19.387Z,59.83
2022-07-29T10:40:25.545Z,60.13
2022-07-29T10:43:08.914Z,59.66
2022-07-29T10:45:36.830Z,59.29
2022-07-29T10:48:08.040Z,57.72
2022-07-29T10:50:56.309Z,58.01
2022-07-29T10:53:33.719Z,57.30
2022-07-29T10:56:02.453Z,57.37
2022-07-29T10:58:35.749Z,57.87
2022-07-29T11:01:37.201Z,57.46
2022-07-29T11:04:06.966Z,58.54
2022-07-29T11:07:09.033Z,58.72
2022-07-29T11:09:38.921Z,59.30
2022-07-29T11:12:49.288Z,59.06
2022-07-29T11:15:22.522Z,58.75
2022-07-29T11:18:07.677Z,57.59
2022-07-29T11:20:45.600Z,58.00
2022-07-29T11:23:26.004Z,56.83
2022-07-29T11:26:18.491Z,55.59
2022-07-29T11:29:03.434Z,55.91
2022-07-29T11:31:45.092Z,56.06
2022-07-29T11:37:25.670Z,56.09
2022-07-29T11:40:18.329Z,56.09
2022-07-29T11:42:48.162Z,57.78
2022-07-29T11:48:29.444Z,57.17
2022-07-29T11:51:00.988Z,57.87
2022-07-29T11:53:32.783Z,57.93
2022-07-29T11:56:02.596Z,58.32
2022-07-29T11:58:32.623Z,58.46
2022-07-29T12:01:04.539Z,58.53
2022-07-29T12:03:35.972Z,58.25
2022-07-29T12:06:14.257Z,59.40
2022-07-29T12:07:03.373Z,56.02
2022-07-29T12:08:44.793Z,58.20
2022-07-29T12:11:22.505Z,57.70
2022-07-29T12:13:52.110Z,58.52
2022-07-29T12:16:25.932Z,58.48
2022-07-29T12:18:59.257Z,58.25
2022-07-29T12:21:28.741Z,58.07
2022-07-29T12:24:03.509Z,58.39
2022-07-29T12:26:34.298Z,58.70
2022-07-29T12:29:04.137Z,58.26
2022-07-29T12:31:43.427Z,56.91
2022-07-29T12:34:13.670Z,58.45
2022-07-29T12:36:43.547Z,57.55
2022-07-29T12:39:12.461Z,58.10
2022-07-29T12:41:40.386Z,59.10
2022-07-29T12:44:08.257Z,56.60
2022-07-29T12:46:36.256Z,61.21
2022-07-29T12:49:05.744Z,58.75
2022-07-29T12:51:37.478Z,59.38
2022-07-29T12:54:09.275Z,57.02
2022-07-29T12:56:43.627Z,57.20
2022-07-29T12:59:18.819Z,57.10
2022-07-29T13:01:48.914Z,57.39
2022-07-29T13:04:31.435Z,54.69
2022-07-29T13:07:04.797Z,55.27
2022-07-29T13:09:41.234Z,55.66
2022-07-29T13:12:11.325Z,55.74
2022-07-29T13:14:41.192Z,55.51
2022-07-29T13:17:12.315Z,53.28
2022-07-29T13:19:43.905Z,53.06
2022-07-29T13:22:13.710Z,52.80
2022-07-29T13:24:50.410Z,51.25
2022-07-29T13:27:19.530Z,50.97
2022-07-29T13:29:47.818Z,51.19
2022-07-29T13:32:15.599Z,51.21
2022-07-29T13:34:44.816Z,50.59
2022-07-29T13:37:12.825Z,50.55
2022-07-29T13:39:40.811Z,50.13
2022-07-29T13:42:11.053Z,49.91
2022-07-29T13:44:39.128Z,47.95
2022-07-29T13:47:07.329Z,46.69
2022-07-29T13:49:36.245Z,45.29
2022-07-29T13:52:08.139Z,44.48
2022-07-29T13:54:42.383Z,44.66
2022-07-29T13:57:11.946Z,44.99
2022-07-29T13:59:40.961Z,42.58
2022-07-29T14:02:11.215Z,41.07
2022-07-29T14:04:39.722Z,40.29
2022-07-29T14:07:09.249Z,37.54
2022-07-29T14:09:41.671Z,38.70
2022-07-29T14:12:10.457Z,38.26
2022-07-29T14:14:38.325Z,38.06
2022-07-29T14:17:07.583Z,38.71
2022-07-29T14:19:36.569Z,39.61
2022-07-29T14:22:05.418Z,40.15
2022-07-29T14:24:37.061Z,39.53
2022-07-29T14:27:07.974Z,39.13
2022-07-29T14:29:37.473Z,39.48
2022-07-29T14:32:08.115Z,39.22
2022-07-29T14:34:36.530Z,38.38
2022-07-29T14:37:06.319Z,38.74
2022-07-29T14:39:42.923Z,39.06
2022-07-29T14:42:12.384Z,38.63
2022-07-29T14:44:42.094Z,39.20
2022-07-29T14:47:10.463Z,38.81
2022-07-29T14:49:38.534Z,39.38
2022-07-29T14:52:06.335Z,38.34
2022-07-29T14:54:34.334Z,39.11
2022-07-29T14:57:03.585Z,39.86
2022-07-29T14:59:31.646Z,39.64
2022-07-29T15:01:59.804Z,37.76
2022-07-29T15:04:27.842Z,39.54
2022-07-29T15:06:55.581Z,39.14
2022-07-29T15:09:24.204Z,38.95
2022-07-29T15:11:52.015Z,38.05
2022-07-29T15:14:21.161Z,37.79
2022-07-29T15:16:49.006Z,38.14
2022-07-29T15:19:16.912Z,38.02
2022-07-29T15:21:48.617Z,38.46
2022-07-29T15:24:17.660Z,38.47
2022-07-29T15:26:46.222Z,38.43
2022-07-29T15:29:14.697Z,37.04
2022-07-29T15:31:44.445Z,36.78
2022-07-29T15:34:12.327Z,35.65
2022-07-29T15:36:56.023Z,35.65
2022-07-29T15:39:23.929Z,36.64
2022-07-29T15:41:52.063Z,36.16
2022-07-29T15:44:21.120Z,36.46
2022-07-29T15:47:08.777Z,35.31
2022-07-29T15:49:47.266Z,35.50
2022-07-29T15:52:25.048Z,34.88
2022-07-29T15:54:55.489Z,35.22
2022-07-29T15:57:24.533Z,34.84
2022-07-29T15:59:52.725Z,34.51
2022-07-29T16:02:22.312Z,35.82
2022-07-29T16:04:50.143Z,35.07
2022-07-29T16:07:18.170Z,34.38
2022-07-29T16:09:50.746Z,35.50
2022-07-29T16:12:20.529Z,34.32
2022-07-29T16:14:49.453Z,34.36
2022-07-29T16:17:18.322Z,34.38
2022-07-29T16:19:48.237Z,35.16
2022-07-29T16:22:16.668Z,34.75
2022-07-29T16:24:44.573Z,32.74
2022-07-29T16:27:12.416Z,33.21
2022-07-29T16:29:40.197Z,34.40
2022-07-29T16:32:08.109Z,33.37
2022-07-29T16:34:35.951Z,33.67
2022-07-29T16:37:05.383Z,32.73
2022-07-29T16:39:33.658Z,33.12
2022-07-29T16:42:05.053Z,32.70
2022-07-29T16:44:34.898Z,32.08
2022-07-29T16:47:04.028Z,33.29
2022-07-29T16:49:32.542Z,33.39
2022-07-29T16:52:00.762Z,33.13
2022-07-29T16:54:30.240Z,32.13
2022-07-29T16:57:00.404Z,32.96
2022-07-29T16:59:29.590Z,32.22
2022-07-29T17:01:57.826Z,32.79
2022-07-29T17:04:27.406Z,32.38
2022-07-29T17:06:55.535Z,31.94
2022-07-29T17:09:24.267Z,33.33
2022-07-29T17:11:55.055Z,33.24
2022-07-29T17:14:25.270Z,32.94
2022-07-29T17:17:00.414Z,33.31
2022-07-29T17:19:33.576Z,33.02
2022-07-29T17:22:11.667Z,33.98
2022-07-29T17:24:42.657Z,33.29
2022-07-29T17:27:11.800Z,33.91
2022-07-29T17:29:40.122Z,33.32
2022-07-29T17:32:10.232Z,33.25
2022-07-29T17:34:40.360Z,32.89
2022-07-29T17:37:10.929Z,33.36
2022-07-29T17:39:41.226Z,33.39
2022-07-29T17:42:13.189Z,32.90
2022-07-29T17:44:41.649Z,33.78
2022-07-29T17:47:15.694Z,33.78
2022-07-29T17:49:44.918Z,34.02
2022-07-29T17:52:13.196Z,33.42
2022-07-29T17:54:41.056Z,34.08
2022-07-29T17:57:08.851Z,33.10
2022-07-29T17:59:38.002Z,33.51
2022-07-29T18:02:05.867Z,33.41
2022-07-29T18:04:33.710Z,33.43
2022-07-29T18:07:02.132Z,34.07
2022-07-29T18:09:30.007Z,34.59
2022-07-29T18:11:57.748Z,34.10
2022-07-29T18:14:25.517Z,34.36
2022-07-29T18:16:54.635Z,34.23
2022-07-29T18:19:22.463Z,34.58
2022-07-29T18:21:53.899Z,34.22
2022-07-29T18:24:25.154Z,35.14
2022-07-29T18:26:53.130Z,35.41
2022-07-29T18:29:20.975Z,35.32
2022-07-29T18:31:49.130Z,34.86
2022-07-29T18:34:18.268Z,34.97
2022-07-29T18:36:46.361Z,35.40
2022-07-29T18:39:20.047Z,35.38
2022-07-29T18:41:51.280Z,35.64
2022-07-29T18:44:21.914Z,36.23
2022-07-29T18:46:51.461Z,36.57
2022-07-29T18:49:21.308Z,36.15
2022-07-29T18:51:50.665Z,36.40
2022-07-29T18:54:19.012Z,35.97
2022-07-29T18:56:47.561Z,36.52
2022-07-29T18:59:17.168Z,37.46
2022-07-29T19:01:45.565Z,37.42
2022-07-29T19:04:13.468Z,37.88
2022-07-29T19:06:42.838Z,38.73
2022-07-29T19:09:10.817Z,38.31
2022-07-29T19:11:39.411Z,38.79
2022-07-29T19:14:08.353Z,39.12
2022-07-29T19:16:36.335Z,39.14
2022-07-29T19:19:04.772Z,39.50
2022-07-29T19:21:32.577Z,39.51
2022-07-29T19:24:06.832Z,39.28
2022-07-29T19:26:38.880Z,39.98
2022-07-29T19:29:06.670Z,41.19
2022-07-29T19:31:34.515Z,42.00
2022-07-29T19:34:02.306Z,41.48
2022-07-29T19:36:31.217Z,42.57
2022-07-29T19:39:00.380Z,42.92
2022-07-29T19:41:29.992Z,44.04
2022-07-29T19:43:57.854Z,43.76
2022-07-29T19:46:28.852Z,44.02
2022-07-29T19:48:57.209Z,43.55
2022-07-29T19:51:25.271Z,43.77
2022-07-29T19:53:53.089Z,43.76
2022-07-29T19:56:21.108Z,42.78
2022-07-29T19:58:50.178Z,44.17
2022-07-29T20:01:20.000Z,43.91
2022-07-29T20:03:47.875Z,44.25
2022-07-29T20:06:15.743Z,45.27
2022-07-29T20:08:45.061Z,45.45
2022-07-29T20:11:12.855Z,46.13
2022-07-29T20:13:40.609Z,45.56
2022-07-29T20:16:09.929Z,45.42
2022-07-29T20:18:37.776Z,44.72
2022-07-29T20:21:05.661Z,45.15
2022-07-29T20:23:33.839Z,45.40
2022-07-29T20:26:01.749Z,45.64
2022-07-29T20:28:29.604Z,45.54
2022-07-29T20:30:57.621Z,45.77
2022-07-29T20:33:27.184Z,45.67
2022-07-29T20:35:55.276Z,46.04
2022-07-29T20:38:23.047Z,46.22
2022-07-29T20:40:50.863Z,46.46
2022-07-29T20:43:18.690Z,46.83
2022-07-29T20:45:46.466Z,46.99
2022-07-29T20:48:14.320Z,47.58
2022-07-29T20:50:44.931Z,47.41
2022-07-29T20:53:13.012Z,47.73
2022-07-29T20:55:41.002Z,48.11
2022-07-29T20:58:08.891Z,48.16
2022-07-29T21:00:37.090Z,48.57
2022-07-29T21:03:04.967Z,49.23
2022-07-29T21:05:32.811Z,49.26
2022-07-29T21:08:01.928Z,49.48
2022-07-29T21:10:29.810Z,49.41
2022-07-29T21:12:57.685Z,50.04
2022-07-29T21:15:27.602Z,49.93
2022-07-29T21:18:03.027Z,50.44
2022-07-29T21:20:31.078Z,50.63
2022-07-29T21:22:58.924Z,50.77
2022-07-29T21:25:29.630Z,50.92
2022-07-29T21:28:16.099Z,51.16
2022-07-29T21:30:43.863Z,50.95
2022-07-29T21:33:11.713Z,50.75
2022-07-29T21:36:14.947Z,51.20
2022-07-29T21:38:27.690Z,51.13
2022-07-29T21:40:59.523Z,51.05
2022-07-29T21:43:28.785Z,50.87
2022-07-29T21:45:58.547Z,51.04
2022-07-29T21:48:28.239Z,50.87
2022-07-29T21:50:56.728Z,51.07
2022-07-29T21:53:26.915Z,50.85
2022-07-29T21:55:56.766Z,50.89
2022-07-29T21:58:24.898Z,51.31
2022-07-29T22:00:52.831Z,51.33
2022-07-29T22:03:20.858Z,52.44
2022-07-29T22:05:48.675Z,52.61
2022-07-29T22:08:16.467Z,52.34
2022-07-29T22:10:44.361Z,52.51
2022-07-29T22:13:13.478Z,52.37
2022-07-29T22:15:45.365Z,52.54
2022-07-29T22:18:21.066Z,52.51
2022-07-29T22:20:55.028Z,53.05
2022-07-29T22:23:27.830Z,53.50
2022-07-29T22:25:55.715Z,54.47
2022-07-29T22:28:24.853Z,54.69
2022-07-29T22:30:52.658Z,54.02
2022-07-29T22:33:20.614Z,54.87
2022-07-29T22:35:49.109Z,55.48
2022-07-29T22:38:17.538Z,55.95
2022-07-29T22:40:45.441Z,56.36
2022-07-29T22:43:13.258Z,56.55
2022-07-29T22:45:42.432Z,56.85
2022-07-29T22:48:10.548Z,57.27
2022-07-29T22:50:39.319Z,57.59
2022-07-29T22:53:07.122Z,57.04
2022-07-29T22:55:35.109Z,57.35
2022-07-29T22:58:02.995Z,57.46
2022-07-29T23:00:31.093Z,57.89
2022-07-29T23:03:00.276Z,58.47
2022-07-29T23:05:28.126Z,59.04
2022-07-29T23:07:56.001Z,59.62
2022-07-29T23:10:23.872Z,59.51
2022-07-29T23:12:51.738Z,59.90
2022-07-29T23:15:20.047Z,60.02
2022-07-29T23:17:47.842Z,59.90
2022-07-29T23:20:17.059Z,60.39
2022-07-29T23:22:45.378Z,60.47
2022-07-29T23:25:13.232Z,60.36
2022-07-29T23:27:41.273Z,60.42
2022-07-29T23:30:10.568Z,60.30
2022-07-29T23:32:38.662Z,59.94
2022-07-29T23:35:09.009Z,59.74
2022-07-29T23:37:38.285Z,59.45
2022-07-29T23:40:13.622Z,58.94
2022-07-29T23:42:42.976Z,58.75
2022-07-29T23:45:12.584Z,58.82
2022-07-29T23:47:42.255Z,60.32
2022-07-29T23:50:16.690Z,61.70
2022-07-29T23:52:45.873Z,61.89
2022-07-29T23:55:37.704Z,62.48
2022-07-29T23:58:03.008Z,62.46
